New York, NY (10019)

5:38 PM EDT on June 02, 2015 (GMT -0400)
Central Park | | Change Station
CLOSE
Current Station
Airport
Location: Central Park,
Elevation: 154 ft
Nearby Weather Stations

Elev 154 ft 40.78 °N, 73.97 °W | Updated 47 minutes ago

Light Rain
Light Rain Mist
54 °F
Feels Like 54 °F
N
4
Wind Variable Wind from East

Today
High -- | Low -- °F
--% Chance of Precip.
Yesterday
High -- | Low -- °F
Precip. -- in
5:26 AM 8:21 PM
Full, 100% visible
Pressure 30.13 in
Visibility 6.0 miles
Clouds Overcast 900 ft
Dew Point 51 °F
Humidity 90%
Rainfall 0.22 in
Snow Depth Not available.
UV 1 out of 12
Pollen .90 out of 12
Air Quality Not available.
Flu Activity Sporadic
METAR KNYC 022051Z AUTO 10003KT 6SM -RA BR OVC009 12/11 A3015 RMK AO2 RAB19 SLP201 P0001 60009 T01220106 55006

More Conditions Fewer Conditions

Pressure 30.13 in
Visibility 6.0 miles
Clouds Overcast 900 ft
Dew Point 51 °F
Humidity 90%
Rainfall 0.22 in
Snow Depth Not available.
UV 1 out of 12
Pollen .90 out of 12
Air Quality Not available.
Flu Activity Sporadic
METAR KNYC 022051Z AUTO 10003KT 6SM -RA BR OVC009 12/11 A3015 RMK AO2 RAB19 SLP201 P0001 60009 T01220106 55006

More Conditions Fewer Conditions

10-Day Weather Forecast

×

Almanac

Astronomy

Jun. 02, 2015 Rise Set
Actual Time
Civil Twilight
Nautical Twilight
Astronomical Twilight
Moon
Length of Visible Light
Length of Day
Tomorrow will be .
, % of the Moon is Illuminated

Today's Extremes

State Highs State Lows

Community

WunderPhotos

Upload Photos

1,826,032 photos uploaded!

WunderBlogs® & News

Nearby

Air Quality

  Air Quality AQ Index Pollutant
Not available.

Snow Depth

Station Depth Elevation

Earthquake Activity

City Distance Mag. Time & Date
Minimum magnitude displayed is 2.5.

Coastal Water Temperatures

Place Temperature

Stations

Nearby Weather Stations

Station Location Temp. Windchill Dew Point Humidity Wind Precip. Elev Updated Type